createdAt,value
2019-04-19T00:00:12.812Z,1029.97
2019-04-19T00:01:12.203Z,1029.94
2019-04-19T00:02:12.244Z,1029.96
2019-04-19T00:03:10.785Z,1029.85
2019-04-19T00:04:11.776Z,1029.92
2019-04-19T00:05:09.334Z,1029.91
2019-04-19T00:06:15.150Z,1029.90
2019-04-19T00:07:15.495Z,1029.89
2019-04-19T00:08:19.998Z,1029.86
2019-04-19T00:09:22.863Z,1029.88
2019-04-19T00:10:57.026Z,1029.86
2019-04-19T00:12:01.911Z,1029.89
2019-04-19T00:12:54.965Z,1029.86
2019-04-19T00:13:51.477Z,1029.93
2019-04-19T00:14:50.657Z,1029.88
2019-04-19T00:15:50.119Z,1029.92
2019-04-19T00:16:51.072Z,1029.84
2019-04-19T00:17:52.560Z,1029.87
2019-04-19T00:19:14.329Z,1029.89
2019-04-19T00:20:16.926Z,1029.91
2019-04-19T00:21:08.094Z,1029.88
2019-04-19T00:22:25.142Z,1029.89
2019-04-19T00:23:04.297Z,1029.91
2019-04-19T00:23:52.954Z,1029.88
2019-04-19T00:24:50.110Z,1029.92
2019-04-19T00:25:49.832Z,1029.88
2019-04-19T00:26:50.746Z,1029.89
2019-04-19T00:27:55.616Z,1029.84
2019-04-19T00:28:55.822Z,1029.81
2019-04-19T00:29:56.107Z,1029.83
2019-04-19T00:30:59.239Z,1029.86
2019-04-19T00:32:08.172Z,1029.83
2019-04-19T00:33:05.483Z,1029.82
2019-04-19T00:33:52.938Z,1029.84
2019-04-19T00:34:50.488Z,1029.81
2019-04-19T00:35:49.706Z,1029.79
2019-04-19T00:36:50.830Z,1029.81
2019-04-19T00:37:52.320Z,1029.80
2019-04-19T00:39:05.092Z,1029.81
2019-04-19T00:40:07.503Z,1029.83
2019-04-19T00:41:11.595Z,1029.81
2019-04-19T00:42:13.013Z,1029.80
2019-04-19T00:43:05.342Z,1029.84
2019-04-19T00:44:02.609Z,1029.81
2019-04-19T00:45:07.892Z,1029.86
2019-04-19T00:46:14.669Z,1029.88
2019-04-19T00:47:09.109Z,1029.89
2019-04-19T00:48:02.962Z,1029.92
2019-04-19T00:49:02.929Z,1029.91
2019-04-19T00:50:02.900Z,1029.94
2019-04-19T00:51:05.048Z,1029.97
2019-04-19T00:51:59.825Z,1030.03
2019-04-19T00:53:05.654Z,1029.99
2019-04-19T00:54:02.358Z,1030.07
2019-04-19T00:54:59.046Z,1029.95
2019-04-19T00:55:59.887Z,1029.93
2019-04-19T00:56:57.883Z,1029.95
2019-04-19T00:57:53.631Z,1029.96
2019-04-19T00:58:56.593Z,1029.99
2019-04-19T00:59:51.800Z,1029.93
2019-04-19T01:00:49.207Z,1029.92
2019-04-19T01:01:57.632Z,1029.97
2019-04-19T01:02:52.154Z,1030.02
2019-04-19T01:03:50.655Z,1029.99
2019-04-19T01:04:55.701Z,1029.96
2019-04-19T01:05:58.098Z,1029.95
2019-04-19T01:06:53.540Z,1029.95
2019-04-19T01:07:49.482Z,1029.95
2019-04-19T01:08:58.580Z,1029.98
2019-04-19T01:10:07.088Z,1030.00
2019-04-19T01:11:06.062Z,1029.94
2019-04-19T01:12:04.407Z,1029.96
2019-04-19T01:13:04.100Z,1029.98
2019-04-19T01:14:01.425Z,1029.98
2019-04-19T01:15:04.685Z,1029.97
2019-04-19T01:17:30.497Z,1029.92
2019-04-19T01:18:26.414Z,1029.96
2019-04-19T01:19:16.063Z,1029.94
2019-04-19T01:20:14.454Z,1029.94
2019-04-19T01:21:13.242Z,1029.94
2019-04-19T01:22:18.252Z,1029.93
2019-04-19T01:23:16.291Z,1029.90
2019-04-19T01:24:13.438Z,1029.93
2019-04-19T01:25:20.270Z,1029.96
2019-04-19T01:26:15.150Z,1029.94
2019-04-19T01:27:20.441Z,1029.94
2019-04-19T01:28:17.762Z,1029.98
2019-04-19T01:29:15.632Z,1029.95
2019-04-19T01:30:17.937Z,1030.04
2019-04-19T01:31:19.094Z,1030.00
2019-04-19T01:32:16.400Z,1029.98
2019-04-19T01:33:12.691Z,1029.97
2019-04-19T01:34:18.205Z,1029.99
2019-04-19T01:35:16.584Z,1029.96
2019-04-19T01:36:12.603Z,1029.99
2019-04-19T01:37:17.636Z,1030.04
2019-04-19T01:38:13.610Z,1029.98
2019-04-19T01:39:25.254Z,1030.05
2019-04-19T01:40:26.947Z,1029.97
2019-04-19T01:41:29.656Z,1029.99
2019-04-19T01:42:34.896Z,1030.03
2019-04-19T01:43:27.862Z,1030.01
2019-04-19T01:44:45.856Z,1030.10
2019-04-19T01:45:27.091Z,1030.07
2019-04-19T01:46:30.758Z,1030.06
2019-04-19T01:47:32.558Z,1030.08
2019-04-19T01:48:31.103Z,1030.08
2019-04-19T01:49:22.679Z,1030.07
2019-04-19T01:50:24.717Z,1030.02
2019-04-19T01:51:36.283Z,1030.04
2019-04-19T01:52:42.009Z,1030.03
2019-04-19T01:53:30.665Z,1030.01
2019-04-19T01:54:29.469Z,1030.02
2019-04-19T01:55:18.881Z,1030.01
2019-04-19T01:56:15.552Z,1029.99
2019-04-19T01:57:14.299Z,1030.01
2019-04-19T01:58:16.164Z,1030.04
2019-04-19T01:59:12.036Z,1030.05
2019-04-19T02:00:16.985Z,1030.06
2019-04-19T02:01:17.602Z,1030.07
2019-04-19T02:02:16.085Z,1030.05
2019-04-19T02:03:12.633Z,1030.09
2019-04-19T02:04:19.078Z,1030.03
2019-04-19T02:05:16.392Z,1030.05
2019-04-19T02:06:14.615Z,1030.06
2019-04-19T02:07:18.048Z,1030.07
2019-04-19T02:08:14.318Z,1030.10
2019-04-19T02:09:11.637Z,1030.06
2019-04-19T02:10:22.797Z,1030.11
2019-04-19T02:11:23.216Z,1030.11
2019-04-19T02:12:26.214Z,1030.11
2019-04-19T02:13:19.664Z,1030.11
2019-04-19T02:14:18.166Z,1030.06
2019-04-19T02:15:15.909Z,1030.08
2019-04-19T02:16:16.990Z,1030.12
2019-04-19T02:17:14.472Z,1030.11
2019-04-19T02:18:21.870Z,1030.12
2019-04-19T02:19:16.220Z,1030.13
2019-04-19T02:20:12.398Z,1030.09
2019-04-19T02:21:13.188Z,1030.14
2019-04-19T02:22:16.099Z,1030.20
2019-04-19T02:23:15.473Z,1030.18
2019-04-19T02:24:12.513Z,1030.16
2019-04-19T02:25:17.020Z,1030.18
2019-04-19T02:26:14.594Z,1030.16
2019-04-19T05:28:59.726Z,1031.19
2019-04-19T05:29:48.362Z,1031.25
2019-04-19T05:30:51.970Z,1031.16
2019-04-19T05:31:49.577Z,1031.18
2019-04-19T05:32:55.895Z,1031.19
2019-04-19T05:46:51.670Z,1031.42
2019-04-19T05:47:41.942Z,1031.44
2019-04-19T05:48:37.114Z,1031.48
2019-04-19T05:49:45.305Z,1031.47
2019-04-19T05:50:49.661Z,1031.47
2019-04-19T05:51:47.274Z,1031.49
2019-04-19T05:52:46.043Z,1031.51
2019-04-19T05:53:35.812Z,1031.49
2019-04-19T05:54:27.880Z,1031.50
2019-04-19T05:55:28.044Z,1031.55
2019-04-19T05:56:26.839Z,1031.59
2019-04-19T05:57:45.491Z,1031.59
2019-04-19T05:58:41.347Z,1031.60
2019-04-19T06:01:05.772Z,1031.60
2019-04-19T06:02:05.465Z,1031.63
2019-04-19T06:03:04.322Z,1031.67
2019-04-19T06:04:11.917Z,1031.66
2019-04-19T06:05:18.806Z,1031.67
2019-04-19T06:06:20.738Z,1031.71
2019-04-19T06:07:10.912Z,1031.72
2019-04-19T06:08:04.154Z,1031.68
2019-04-19T06:08:51.894Z,1031.66
2019-04-19T06:09:51.917Z,1031.69
2019-04-19T06:10:56.635Z,1031.76
2019-04-19T06:11:51.494Z,1031.76
2019-04-19T06:13:01.337Z,1031.76
2019-04-19T06:14:12.646Z,1031.76
2019-04-19T06:15:13.644Z,1031.76
2019-04-19T06:16:11.463Z,1031.75
2019-04-19T06:17:03.006Z,1031.80
2019-04-19T06:18:10.703Z,1031.81
2019-04-19T06:19:12.465Z,1031.81
2019-04-19T06:20:11.342Z,1031.82
2019-04-19T06:21:15.784Z,1031.81
2019-04-19T06:22:07.092Z,1031.82
2019-04-19T06:23:09.181Z,1031.79
2019-04-19T06:24:12.429Z,1031.79
2019-04-19T06:25:06.470Z,1031.83
2019-04-19T06:26:39.774Z,1031.80
2019-04-19T06:27:18.723Z,1031.83
2019-04-19T06:28:19.048Z,1031.84
2019-04-19T06:29:11.047Z,1031.88
2019-04-19T06:30:15.064Z,1031.90
2019-04-19T06:31:18.075Z,1031.94
2019-04-19T06:32:17.824Z,1031.95
2019-04-19T06:33:15.059Z,1031.95
2019-04-19T06:34:12.283Z,1031.98
2019-04-19T06:35:07.762Z,1031.97
2019-04-19T06:35:57.324Z,1031.98
2019-04-19T06:37:01.782Z,1031.96
2019-04-19T06:37:50.602Z,1032.01
2019-04-19T06:38:50.795Z,1032.00
2019-04-19T06:40:02.750Z,1032.02
2019-04-19T06:40:57.291Z,1032.05
2019-04-19T06:42:00.081Z,1032.08
2019-04-19T06:43:01.159Z,1032.11
2019-04-19T06:44:02.954Z,1032.09
2019-04-19T06:45:13.500Z,1032.15
2019-04-19T06:46:07.064Z,1032.14
2019-04-19T06:47:02.836Z,1032.18
2019-04-19T06:47:58.900Z,1032.16
2019-04-19T06:48:59.662Z,1032.19
2019-04-19T06:49:53.732Z,1032.18
2019-04-19T06:50:54.736Z,1032.12
2019-04-19T06:51:58.746Z,1032.17
2019-04-19T06:52:50.985Z,1032.15
2019-04-19T06:53:58.241Z,1032.18
2019-04-19T06:54:51.593Z,1032.21
2019-04-19T06:55:53.555Z,1032.16
2019-04-19T06:57:00.759Z,1032.21
2019-04-19T06:58:02.949Z,1032.22
2019-04-19T06:59:04.240Z,1032.21
2019-04-19T07:00:03.373Z,1032.21
2019-04-19T07:01:04.849Z,1032.27
2019-04-19T07:01:55.576Z,1032.27
2019-04-19T07:02:50.033Z,1032.28
2019-04-19T07:03:50.006Z,1032.31
2019-04-19T07:05:03.434Z,1032.32
2019-04-19T07:06:10.452Z,1032.27
2019-04-19T07:07:10.597Z,1032.28
2019-04-19T07:08:18.177Z,1032.27
2019-04-19T07:09:16.932Z,1032.30
2019-04-19T07:10:23.617Z,1032.31
2019-04-19T07:11:11.614Z,1032.34
2019-04-19T07:12:16.638Z,1032.33
2019-04-19T07:13:09.050Z,1032.36
2019-04-19T07:13:58.405Z,1032.35
2019-04-19T07:15:12.400Z,1032.35
2019-04-19T07:16:14.588Z,1032.38
2019-04-19T07:17:10.952Z,1032.35
2019-04-19T07:18:02.790Z,1032.38
2019-04-19T07:19:10.795Z,1032.41
2019-04-19T07:20:04.614Z,1032.39
2019-04-19T07:21:12.600Z,1032.40
2019-04-19T07:22:06.200Z,1032.36
2019-04-19T07:23:03.299Z,1032.40
2019-04-19T07:24:16.286Z,1032.41
2019-04-19T07:25:20.073Z,1032.42
2019-04-19T07:26:10.263Z,1032.44
2019-04-19T07:27:10.020Z,1032.47
2019-04-19T07:27:59.505Z,1032.43
2019-04-19T07:28:49.680Z,1032.48
2019-04-19T07:29:50.566Z,1032.44
2019-04-19T07:30:57.489Z,1032.54
2019-04-19T07:31:49.614Z,1032.58
2019-04-19T07:33:44.124Z,1032.59
2019-04-19T07:34:50.631Z,1032.60
2019-04-19T07:35:58.832Z,1032.62
2019-04-19T07:36:49.895Z,1032.63
2019-04-19T07:37:47.290Z,1032.67
2019-04-19T07:38:53.367Z,1032.66
2019-04-19T07:40:00.462Z,1032.67
2019-04-19T07:40:50.006Z,1032.65
2019-04-19T07:41:50.708Z,1032.69
2019-04-19T07:43:30.050Z,1032.74
2019-04-19T07:44:27.406Z,1032.76
2019-04-19T07:45:22.950Z,1032.79
2019-04-19T07:46:31.119Z,1032.83
2019-04-19T07:47:27.721Z,1032.83
2019-04-19T07:48:18.461Z,1032.80
2019-04-19T07:49:15.538Z,1032.84
2019-04-19T07:50:19.743Z,1032.86
2019-04-19T07:51:20.622Z,1032.87
2019-04-19T07:52:19.916Z,1032.90
2019-04-19T07:53:19.944Z,1032.88
2019-04-19T07:54:17.898Z,1032.89
2019-04-19T07:55:15.415Z,1032.92
2019-04-19T07:56:24.678Z,1032.96
2019-04-19T07:57:51.964Z,1032.98
2019-04-19T07:58:44.565Z,1032.94
2019-04-19T08:01:24.387Z,1032.98
2019-04-19T08:02:47.140Z,1032.97
2019-04-19T08:04:33.119Z,1032.95
2019-04-19T08:05:15.141Z,1032.92
2019-04-19T08:06:33.326Z,1032.91
2019-04-19T08:07:29.129Z,1032.91
2019-04-19T08:08:32.661Z,1032.93
2019-04-19T08:11:58.874Z,1032.96
2019-04-19T08:12:42.219Z,1032.96
2019-04-19T08:14:48.204Z,1032.97
2019-04-19T08:15:55.108Z,1033.01
2019-04-19T08:27:23.081Z,1033.03
2019-04-19T08:28:14.133Z,1033.00
2019-04-19T08:29:21.044Z,1033.07
2019-04-19T08:30:07.957Z,1033.05
2019-04-19T08:31:06.185Z,1033.10
2019-04-19T08:32:02.943Z,1033.08
2019-04-19T08:33:03.049Z,1033.08
2019-04-19T08:34:09.290Z,1033.09
2019-04-19T08:35:06.978Z,1033.08
2019-04-19T08:36:07.410Z,1033.09
2019-04-19T08:37:06.156Z,1033.15
2019-04-19T08:38:08.187Z,1033.19
2019-04-19T08:39:17.938Z,1033.17
2019-04-19T08:40:22.021Z,1033.18
2019-04-19T08:41:13.659Z,1033.22
2019-04-19T08:42:20.602Z,1033.29
2019-04-19T08:43:21.033Z,1033.31
2019-04-19T08:44:18.057Z,1033.35
2019-04-19T08:45:08.292Z,1033.36
2019-04-19T08:46:02.864Z,1033.35
2019-04-19T08:47:02.472Z,1033.36
2019-04-19T08:48:10.068Z,1033.37
2019-04-19T08:49:05.726Z,1033.29
2019-04-19T08:50:06.774Z,1033.25
2019-04-19T08:51:03.830Z,1033.21
2019-04-19T08:52:07.227Z,1033.21
2019-04-19T08:53:22.269Z,1033.20
2019-04-19T08:54:25.853Z,1033.16
2019-04-19T08:55:13.959Z,1033.21
2019-04-19T08:56:16.412Z,1033.15
2019-04-19T08:57:08.186Z,1033.12
2019-04-19T08:58:08.423Z,1033.08
2019-04-19T09:00:04.801Z,1033.09
2019-04-19T09:01:12.367Z,1033.12
2019-04-19T09:02:07.274Z,1033.09
2019-04-19T09:02:59.462Z,1033.18
2019-04-19T09:04:02.700Z,1033.21
2019-04-19T09:07:18.679Z,1033.18
2019-04-19T09:15:57.105Z,1032.41
2019-04-19T09:17:03.200Z,1032.28
2019-04-19T09:18:20.931Z,1032.33
2019-04-19T09:19:02.240Z,1032.34
2019-04-19T09:20:56.730Z,1032.31
2019-04-19T09:21:52.049Z,1032.25
2019-04-19T09:22:49.060Z,1032.26
2019-04-19T09:23:46.979Z,1032.30
2019-04-19T09:24:51.816Z,1032.25
2019-04-19T09:25:48.839Z,1032.21
2019-04-19T09:26:54.226Z,1032.20
2019-04-19T09:28:00.341Z,1032.25
2019-04-19T09:29:12.438Z,1032.22
2019-04-19T09:31:58.708Z,1032.14
2019-04-19T09:32:46.781Z,1032.16
2019-04-19T09:33:47.303Z,1032.11
2019-04-19T09:34:50.922Z,1032.06
2019-04-19T09:35:55.034Z,1032.08
2019-04-19T09:36:57.810Z,1032.04
2019-04-19T09:37:57.158Z,1032.05
2019-04-19T09:39:03.015Z,1032.02
2019-04-19T09:39:55.225Z,1031.99
2019-04-19T09:41:38.330Z,1031.94
2019-04-19T09:42:38.818Z,1031.97
2019-04-19T09:43:37.951Z,1031.93
2019-04-19T09:44:36.540Z,1031.96
2019-04-19T09:45:27.643Z,1031.97
2019-04-19T09:46:27.640Z,1031.99
2019-04-19T09:47:27.303Z,1031.97
2019-04-19T09:48:46.391Z,1031.95
2019-04-19T09:49:44.006Z,1031.93
2019-04-19T09:50:44.254Z,1031.95
2019-04-19T09:51:42.646Z,1031.94
2019-04-19T09:52:47.635Z,1031.92
2019-04-19T09:53:46.404Z,1031.93
2019-04-19T09:54:51.453Z,1031.91
2019-04-19T09:55:49.886Z,1031.90
2019-04-19T09:56:47.153Z,1031.86
2019-04-19T09:57:48.223Z,1031.85
2019-04-19T09:58:43.350Z,1031.90
2019-04-19T09:59:32.842Z,1031.85
2019-04-19T10:00:30.079Z,1031.85
2019-04-19T10:01:30.188Z,1031.83
2019-04-19T10:02:33.850Z,1031.82
2019-04-19T10:03:36.858Z,1031.83
2019-04-19T10:04:27.311Z,1031.84
2019-04-19T10:05:27.058Z,1031.80
2019-04-19T10:06:27.024Z,1031.84
2019-04-19T10:07:27.158Z,1031.85
2019-04-19T10:08:28.095Z,1031.86
2019-04-19T10:09:27.320Z,1031.85
2019-04-19T10:10:27.051Z,1031.81
2019-04-19T10:11:27.332Z,1031.79
2019-04-19T10:12:27.212Z,1031.83
2019-04-19T10:13:27.943Z,1031.78
2019-04-19T10:14:27.722Z,1031.80
2019-04-19T10:15:27.996Z,1031.83
2019-04-19T10:16:26.883Z,1031.83
2019-04-19T10:17:26.898Z,1031.83
2019-04-19T10:18:26.861Z,1031.83
2019-04-19T10:19:26.842Z,1031.84
2019-04-19T10:20:26.825Z,1031.76
2019-04-19T10:21:32.379Z,1031.73
2019-04-19T10:22:26.812Z,1031.72
2019-04-19T10:23:27.276Z,1031.67
2019-04-19T10:24:27.784Z,1031.68
2019-04-19T10:25:27.646Z,1031.65
2019-04-19T10:26:26.742Z,1031.64
2019-04-19T10:27:27.084Z,1031.67
2019-04-19T10:28:27.364Z,1031.64
2019-04-19T10:29:31.561Z,1031.64
2019-04-19T10:30:26.690Z,1031.66
2019-04-19T10:31:27.258Z,1031.65
2019-04-19T10:32:26.687Z,1031.67
2019-04-19T10:33:35.538Z,1031.58
2019-04-19T10:34:26.636Z,1031.64
2019-04-19T10:35:27.406Z,1031.62
2019-04-19T10:36:26.711Z,1031.67
2019-04-19T10:37:28.072Z,1031.57
2019-04-19T10:38:27.568Z,1031.58
2019-04-19T10:41:34.223Z,1031.58
2019-04-19T10:42:33.749Z,1031.59
2019-04-19T10:43:34.961Z,1031.62
2019-04-19T10:44:34.134Z,1031.63
2019-04-19T10:45:34.240Z,1031.64
2019-04-19T10:46:34.144Z,1031.57
2019-04-19T10:47:33.886Z,1031.56
2019-04-19T10:49:26.256Z,1031.59
2019-04-19T10:50:29.477Z,1031.60
2019-04-19T10:51:17.502Z,1031.65
2019-04-19T10:52:17.329Z,1031.63
2019-04-19T10:53:18.987Z,1031.64
2019-04-19T10:54:16.000Z,1031.67
2019-04-19T10:55:16.289Z,1031.64
2019-04-19T10:56:16.407Z,1031.64
2019-04-19T10:57:17.459Z,1031.65
2019-04-19T10:58:17.058Z,1031.67
2019-04-19T10:59:16.452Z,1031.66
2019-04-19T11:00:15.936Z,1031.70
2019-04-19T11:01:15.904Z,1031.71
2019-04-19T11:02:16.100Z,1031.70
2019-04-19T11:03:16.949Z,1031.70
2019-04-19T11:04:16.946Z,1031.74
2019-04-19T11:05:16.757Z,1031.73
2019-04-19T11:06:16.816Z,1031.76
2019-04-19T11:07:15.828Z,1031.74
2019-04-19T11:08:15.814Z,1031.80
2019-04-19T11:09:16.429Z,1031.79
2019-04-19T11:10:15.926Z,1031.80
2019-04-19T11:11:15.919Z,1031.76
2019-04-19T11:12:15.765Z,1031.77
2019-04-19T11:13:17.935Z,1031.76
2019-04-19T11:14:16.369Z,1031.74
2019-04-19T11:15:16.197Z,1031.72
2019-04-19T11:16:15.708Z,1031.73
2019-04-19T11:17:16.003Z,1031.78
2019-04-19T11:18:15.700Z,1031.79
2019-04-19T11:19:20.888Z,1031.77
2019-04-19T11:20:26.262Z,1031.72
2019-04-19T11:21:15.886Z,1031.70
2019-04-19T11:22:15.629Z,1031.67
2019-04-19T11:23:15.639Z,1031.67
2019-04-19T11:24:15.862Z,1031.69
2019-04-19T11:25:15.589Z,1031.65
2019-04-19T11:26:16.870Z,1031.64
2019-04-19T11:27:15.565Z,1031.64
2019-04-19T11:28:15.555Z,1031.61
2019-04-19T11:29:15.641Z,1031.57
2019-04-19T11:30:15.526Z,1031.58
2019-04-19T11:31:17.649Z,1031.62
2019-04-19T11:32:15.808Z,1031.56
2019-04-19T11:33:15.487Z,1031.54
2019-04-19T11:34:15.474Z,1031.53
2019-04-19T11:35:15.462Z,1031.52
2019-04-19T11:36:15.480Z,1031.50
2019-04-19T11:37:16.736Z,1031.51
2019-04-19T11:38:15.423Z,1031.48
2019-04-19T11:39:15.410Z,1031.47
2019-04-19T11:40:15.424Z,1031.57
2019-04-19T11:41:15.450Z,1031.51
2019-04-19T11:42:15.372Z,1031.51
2019-04-19T11:43:16.206Z,1031.58
2019-04-19T11:44:22.968Z,1031.52
2019-04-19T11:45:15.781Z,1031.42
2019-04-19T11:46:16.074Z,1031.53
2019-04-19T11:47:15.407Z,1031.47
2019-04-19T11:48:15.297Z,1031.53
2019-04-19T11:49:25.665Z,1031.48
2019-04-19T11:50:15.774Z,1031.51
2019-04-19T11:51:16.082Z,1031.44
2019-04-19T11:52:15.243Z,1031.29
2019-04-19T11:53:16.328Z,1031.49
2019-04-19T11:54:16.504Z,1031.48
2019-04-19T11:55:15.205Z,1031.38
2019-04-19T11:56:16.428Z,1031.35
2019-04-19T11:57:16.490Z,1031.46
2019-04-19T11:58:15.179Z,1031.45
2019-04-19T11:59:16.297Z,1031.49
2019-04-19T12:00:15.586Z,1031.35
2019-04-19T12:01:16.227Z,1031.43
2019-04-19T12:02:15.617Z,1031.45
2019-04-19T12:03:16.118Z,1031.39
2019-04-19T12:04:16.233Z,1031.56
2019-04-19T12:05:21.073Z,1031.59
2019-04-19T12:06:16.183Z,1031.59
2019-04-19T12:07:15.043Z,1031.56
2019-04-19T12:08:15.032Z,1031.64
2019-04-19T12:09:16.354Z,1031.64
2019-04-19T12:10:15.009Z,1031.70
2019-04-19T12:11:14.995Z,1031.59
2019-04-19T12:12:15.073Z,1031.70
2019-04-19T12:13:15.232Z,1031.54
2019-04-19T12:14:16.348Z,1031.74
2019-04-19T12:15:15.786Z,1031.75
2019-04-19T12:16:15.057Z,1031.82
2019-04-19T12:17:15.253Z,1031.81
2019-04-19T12:18:15.823Z,1031.86
2019-04-19T12:19:16.110Z,1031.83
2019-04-19T12:20:15.246Z,1031.82
2019-04-19T12:21:15.406Z,1031.78
2019-04-19T12:22:14.973Z,1031.75
2019-04-19T12:23:15.847Z,1031.83
2019-04-19T12:24:15.039Z,1032.00
2019-04-19T12:25:15.518Z,1032.02
2019-04-19T12:26:15.615Z,1032.03
2019-04-19T12:27:15.818Z,1032.16
2019-04-19T12:28:15.343Z,1032.17
2019-04-19T12:29:26.347Z,1032.16
2019-04-19T12:30:15.694Z,1032.29
2019-04-19T12:31:15.673Z,1032.42
2019-04-19T12:32:15.029Z,1032.40
2019-04-19T12:33:15.318Z,1032.46
2019-04-19T12:34:14.956Z,1032.43
2019-04-19T12:35:14.665Z,1032.49
2019-04-19T12:36:15.165Z,1032.60
2019-04-19T12:37:15.254Z,1032.51
2019-04-19T12:38:14.621Z,1032.47
2019-04-19T12:39:14.865Z,1032.37
2019-04-19T12:40:14.950Z,1032.45
2019-04-19T12:41:14.576Z,1032.41
2019-04-19T12:42:15.693Z,1032.46
2019-04-19T12:43:16.251Z,1032.41
2019-04-19T12:44:15.258Z,1032.49
2019-04-19T12:45:15.650Z,1032.53
2019-04-19T12:46:14.823Z,1032.63
2019-04-19T12:47:15.110Z,1032.68
2019-04-19T12:48:14.481Z,1032.42
2019-04-19T12:59:09.482Z,1033.10
2019-04-19T13:00:08.253Z,1032.61
2019-04-19T13:01:08.242Z,1032.22
2019-04-19T13:02:09.303Z,1032.06
2019-04-19T13:03:08.005Z,1032.06
2019-04-19T13:04:08.597Z,1032.03
2019-04-19T13:05:08.697Z,1032.08
2019-04-19T13:06:09.035Z,1032.02
2019-04-19T13:07:08.802Z,1031.92
2019-04-19T13:08:09.412Z,1031.89
2019-04-19T13:09:08.998Z,1031.80
2019-04-19T13:10:09.024Z,1031.75
2019-04-19T13:11:09.085Z,1031.76
2019-04-19T13:12:08.601Z,1031.67
2019-04-19T13:13:07.864Z,1031.74
2019-04-19T13:14:08.023Z,1031.88
2019-04-19T13:15:07.841Z,1031.97
2019-04-19T13:16:08.357Z,1031.93
2019-04-19T13:17:08.357Z,1031.77
2019-04-19T13:18:07.789Z,1031.70
2019-04-19T13:19:08.115Z,1031.17
2019-04-19T13:20:15.645Z,1030.89
2019-04-19T13:21:08.179Z,1031.15
2019-04-19T13:22:08.275Z,1031.41
2019-04-19T13:23:08.496Z,1031.54
2019-04-19T13:24:08.810Z,1031.59
2019-04-19T13:25:09.059Z,1031.59
2019-04-19T13:26:07.672Z,1031.67
2019-04-19T13:27:07.658Z,1031.63
2019-04-19T13:28:07.929Z,1031.71
2019-04-19T13:29:07.631Z,1031.73
2019-04-19T13:30:18.426Z,1031.77
2019-04-19T13:31:08.014Z,1031.97
2019-04-19T13:32:07.849Z,1032.79
2019-04-19T13:33:08.170Z,1033.59
2019-04-19T13:34:07.561Z,1033.97
2019-04-19T13:35:07.567Z,1033.85
2019-04-19T13:36:07.535Z,1033.66
2019-04-19T13:37:07.720Z,1033.61
2019-04-19T13:38:07.504Z,1033.49
2019-04-19T13:39:07.491Z,1033.66
2019-04-19T13:40:08.184Z,1033.64
2019-04-19T13:41:07.460Z,1033.64
2019-04-19T13:42:08.504Z,1033.59
2019-04-19T13:43:07.431Z,1033.49
2019-04-19T13:44:07.422Z,1033.62
2019-04-19T13:45:17.371Z,1033.64
2019-04-19T13:46:08.535Z,1033.78
2019-04-19T13:47:08.740Z,1034.03
2019-04-19T13:48:07.362Z,1033.97
2019-04-19T13:49:08.465Z,1034.06
2019-04-19T13:50:16.863Z,1034.26
2019-04-19T13:51:07.324Z,1034.01
2019-04-19T13:52:08.428Z,1033.65
2019-04-19T13:53:07.291Z,1033.61
2019-04-19T13:54:07.275Z,1033.80
2019-04-19T13:55:08.573Z,1033.19
2019-04-19T13:56:07.249Z,1032.02
2019-04-19T13:57:07.928Z,1031.23
2019-04-19T13:58:07.645Z,1031.01
2019-04-19T13:59:07.655Z,1030.98
2019-04-19T14:00:08.860Z,1030.78
2019-04-19T14:01:07.184Z,1030.78
2019-04-19T14:02:08.416Z,1030.83
2019-04-19T14:03:07.532Z,1030.80
2019-04-19T14:04:07.832Z,1030.65
2019-04-19T14:05:07.358Z,1030.75
2019-04-19T14:06:08.438Z,1030.77
2019-04-19T14:07:07.335Z,1030.80
2019-04-19T14:08:07.279Z,1030.76
2019-04-19T14:09:07.261Z,1030.72
2019-04-19T14:10:07.377Z,1030.72
2019-04-19T14:11:07.030Z,1030.63
2019-04-19T14:12:07.136Z,1030.56
2019-04-19T14:13:07.305Z,1030.68
2019-04-19T14:14:07.798Z,1030.77
2019-04-19T14:15:06.973Z,1030.80
2019-04-19T14:16:07.160Z,1030.82
2019-04-19T14:17:06.942Z,1030.79
2019-04-19T14:18:06.926Z,1030.66
2019-04-19T14:19:08.341Z,1030.50
2019-04-19T14:20:07.118Z,1030.67
2019-04-19T14:21:06.888Z,1030.66
2019-04-19T14:22:07.069Z,1030.59
2019-04-19T14:23:07.693Z,1030.60
2019-04-19T14:24:07.150Z,1030.60
2019-04-19T14:25:07.385Z,1030.54
2019-04-19T14:26:07.676Z,1030.53
2019-04-19T14:27:06.992Z,1030.46
2019-04-19T14:28:07.339Z,1030.50
2019-04-19T14:29:07.546Z,1030.47
2019-04-19T14:30:06.745Z,1030.45
2019-04-19T14:31:07.131Z,1030.46
2019-04-19T14:32:07.318Z,1030.40
2019-04-19T14:33:06.717Z,1030.42
2019-04-19T14:34:06.866Z,1030.40
2019-04-19T14:35:07.986Z,1030.40
2019-04-19T14:36:07.842Z,1030.32
2019-04-19T14:37:08.015Z,1030.31
2019-04-19T14:38:07.547Z,1030.29
2019-04-19T14:39:06.795Z,1030.28
2019-04-19T14:40:06.967Z,1030.31
2019-04-19T14:41:07.357Z,1030.22
2019-04-19T14:42:07.654Z,1030.24
2019-04-19T14:43:06.820Z,1030.14
2019-04-19T14:44:07.238Z,1030.18
2019-04-19T14:45:07.885Z,1030.15
2019-04-19T14:46:06.854Z,1030.15
2019-04-19T14:47:06.485Z,1030.16
2019-04-19T14:48:06.815Z,1030.01
2019-04-19T14:49:07.072Z,1030.09
2019-04-19T14:50:07.333Z,1030.06
2019-04-19T14:51:12.213Z,1029.96
2019-04-19T14:52:07.714Z,1029.97
2019-04-19T14:53:06.382Z,1030.02
2019-04-19T14:54:06.952Z,1030.02
2019-04-19T14:55:07.810Z,1029.96
2019-04-19T14:56:06.935Z,1029.96
2019-04-19T14:57:07.259Z,1029.98
2019-04-19T14:58:06.497Z,1029.94
2019-04-19T14:59:06.283Z,1029.96
2019-04-19T15:00:07.077Z,1029.90
2019-04-19T15:01:06.861Z,1029.90
2019-04-19T15:02:07.038Z,1029.93
2019-04-19T15:03:07.146Z,1029.92
2019-04-19T15:04:06.731Z,1029.85
2019-04-19T15:05:07.564Z,1029.92
2019-04-19T15:06:06.166Z,1029.94
2019-04-19T15:07:07.557Z,1029.94
2019-04-19T15:08:06.414Z,1029.92
2019-04-19T15:09:06.105Z,1029.90
2019-04-19T15:10:06.087Z,1029.85
2019-04-19T15:11:07.416Z,1029.81
2019-04-19T15:12:06.911Z,1029.86
2019-04-19T15:13:07.086Z,1029.87
2019-04-19T15:14:06.183Z,1029.88
2019-04-19T15:15:06.224Z,1029.76
2019-04-19T15:16:08.689Z,1029.85
2019-04-19T15:17:07.170Z,1029.79
2019-04-19T15:18:06.517Z,1029.81
2019-04-19T15:19:06.644Z,1029.77
2019-04-19T15:20:05.912Z,1029.83
2019-04-19T15:21:11.126Z,1029.79
2019-04-19T15:22:06.217Z,1029.81
2019-04-19T15:23:06.635Z,1029.86
2019-04-19T15:24:05.857Z,1029.82
2019-04-19T15:25:06.696Z,1029.81
2019-04-19T15:26:06.722Z,1029.82
2019-04-19T15:27:07.168Z,1029.86
2019-04-19T15:28:06.774Z,1029.83
2019-04-19T15:29:07.006Z,1029.86
2019-04-19T15:30:05.737Z,1029.85
2019-04-19T15:31:06.016Z,1029.80
2019-04-19T15:32:06.371Z,1029.70
2019-04-19T15:33:06.664Z,1029.76
2019-04-19T15:34:06.151Z,1029.76
2019-04-19T15:35:05.848Z,1029.83
2019-04-19T15:36:06.284Z,1029.77
2019-04-19T15:37:05.814Z,1029.76
2019-04-19T15:38:05.909Z,1029.82
2019-04-19T15:39:06.040Z,1029.77
2019-04-19T15:40:05.758Z,1029.78
2019-04-19T15:41:06.196Z,1029.79
2019-04-19T15:42:48.117Z,1029.76
2019-04-19T15:43:48.493Z,1029.76
2019-04-19T15:44:49.020Z,1029.75
2019-04-19T15:45:47.858Z,1029.71
2019-04-19T15:46:48.043Z,1029.73
2019-04-19T15:47:48.647Z,1029.70
2019-04-19T15:48:51.990Z,1029.76
2019-04-19T15:49:48.239Z,1029.70
2019-04-19T16:52:59.647Z,1029.18
2019-04-19T16:53:58.603Z,1029.19
2019-04-19T16:55:00.399Z,1029.15
2019-04-19T16:55:59.503Z,1029.17
2019-04-19T16:57:07.797Z,1029.16
2019-04-19T16:57:58.870Z,1029.11
2019-04-19T16:59:01.201Z,1029.21
2019-04-19T16:59:58.260Z,1029.17
2019-04-19T17:00:58.753Z,1029.12
2019-04-19T17:08:19.962Z,1029.13
2019-04-19T17:09:20.673Z,1029.15
2019-04-19T17:10:20.450Z,1029.10
2019-04-19T17:11:19.710Z,1029.09
2019-04-19T17:12:20.853Z,1029.18
2019-04-19T17:13:20.527Z,1029.19
2019-04-19T17:14:20.814Z,1029.10
2019-04-19T17:15:19.581Z,1029.12
2019-04-19T17:16:19.793Z,1029.11
2019-04-19T17:17:20.458Z,1029.18